sensor_id;sensor_type;location;lat;lon;timestamp;P1;durP1;ratioP1;P2;durP2;ratioP2
25657;SDS011;13517;59.320;18.042;2023-01-19T00:00:23;16.27;;;3.92;;
25657;SDS011;13517;59.320;18.042;2023-01-19T00:02:48;13.98;;;4.10;;
25657;SDS011;13517;59.320;18.042;2023-01-19T00:05:14;15.98;;;3.80;;
25657;SDS011;13517;59.320;18.042;2023-01-19T00:07:40;8.73;;;4.55;;
25657;SDS011;13517;59.320;18.042;2023-01-19T00:10:06;16.65;;;4.32;;
25657;SDS011;13517;59.320;18.042;2023-01-19T00:12:33;13.30;;;4.00;;
25657;SDS011;13517;59.320;18.042;2023-01-19T00:14:58;17.88;;;4.38;;
25657;SDS011;13517;59.320;18.042;2023-01-19T00:17:24;10.27;;;3.65;;
25657;SDS011;13517;59.320;18.042;2023-01-19T00:19:49;14.60;;;3.90;;
25657;SDS011;13517;59.320;18.042;2023-01-19T00:22:14;8.35;;;4.03;;
25657;SDS011;13517;59.320;18.042;2023-01-19T00:24:40;9.85;;;3.47;;
25657;SDS011;13517;59.320;18.042;2023-01-19T00:27:05;9.02;;;3.42;;
25657;SDS011;13517;59.320;18.042;2023-01-19T00:29:31;8.02;;;3.30;;
25657;SDS011;13517;59.320;18.042;2023-01-19T00:32:01;14.93;;;3.70;;
25657;SDS011;13517;59.320;18.042;2023-01-19T00:34:28;10.73;;;3.42;;
25657;SDS011;13517;59.320;18.042;2023-01-19T00:37:10;13.38;;;3.60;;
25657;SDS011;13517;59.320;18.042;2023-01-19T00:39:35;16.50;;;3.70;;
25657;SDS011;13517;59.320;18.042;2023-01-19T00:42:01;9.38;;;3.55;;
25657;SDS011;13517;59.320;18.042;2023-01-19T00:44:45;13.63;;;3.83;;
25657;SDS011;13517;59.320;18.042;2023-01-19T00:47:10;14.65;;;3.78;;
25657;SDS011;13517;59.320;18.042;2023-01-19T00:49:36;12.88;;;5.20;;
25657;SDS011;13517;59.320;18.042;2023-01-19T00:52:01;8.43;;;3.83;;
25657;SDS011;13517;59.320;18.042;2023-01-19T00:54:27;11.30;;;4.07;;
25657;SDS011;13517;59.320;18.042;2023-01-19T00:56:52;14.50;;;4.00;;
25657;SDS011;13517;59.320;18.042;2023-01-19T00:59:18;11.55;;;3.22;;
25657;SDS011;13517;59.320;18.042;2023-01-19T01:01:43;12.00;;;3.70;;
25657;SDS011;13517;59.320;18.042;2023-01-19T01:04:09;9.48;;;3.45;;
25657;SDS011;13517;59.320;18.042;2023-01-19T01:06:36;12.32;;;3.35;;
25657;SDS011;13517;59.320;18.042;2023-01-19T01:09:01;12.88;;;3.55;;
25657;SDS011;13517;59.320;18.042;2023-01-19T01:11:35;9.32;;;2.75;;
25657;SDS011;13517;59.320;18.042;2023-01-19T01:14:05;11.52;;;3.42;;
25657;SDS011;13517;59.320;18.042;2023-01-19T01:16:31;10.18;;;3.30;;
25657;SDS011;13517;59.320;18.042;2023-01-19T01:18:56;11.27;;;3.25;;
25657;SDS011;13517;59.320;18.042;2023-01-19T01:21:22;10.82;;;2.95;;
25657;SDS011;13517;59.320;18.042;2023-01-19T01:23:47;11.27;;;2.80;;
25657;SDS011;13517;59.320;18.042;2023-01-19T01:26:13;11.27;;;3.00;;
25657;SDS011;13517;59.320;18.042;2023-01-19T01:28:38;5.10;;;2.70;;
25657;SDS011;13517;59.320;18.042;2023-01-19T01:31:04;11.75;;;3.35;;
25657;SDS011;13517;59.320;18.042;2023-01-19T01:33:29;9.65;;;2.70;;
25657;SDS011;13517;59.320;18.042;2023-01-19T01:35:54;10.50;;;3.28;;
25657;SDS011;13517;59.320;18.042;2023-01-19T01:38:20;8.43;;;2.80;;
25657;SDS011;13517;59.320;18.042;2023-01-19T01:40:45;9.13;;;2.75;;
25657;SDS011;13517;59.320;18.042;2023-01-19T01:43:14;9.02;;;2.53;;
25657;SDS011;13517;59.320;18.042;2023-01-19T01:45:42;6.55;;;2.78;;
25657;SDS011;13517;59.320;18.042;2023-01-19T01:48:12;12.82;;;3.10;;
25657;SDS011;13517;59.320;18.042;2023-01-19T01:50:52;11.07;;;3.28;;
25657;SDS011;13517;59.320;18.042;2023-01-19T01:53:39;7.38;;;2.45;;
25657;SDS011;13517;59.320;18.042;2023-01-19T01:56:08;20.33;;;3.58;;
25657;SDS011;13517;59.320;18.042;2023-01-19T01:58:38;12.55;;;4.75;;
25657;SDS011;13517;59.320;18.042;2023-01-19T02:01:04;12.73;;;2.80;;
25657;SDS011;13517;59.320;18.042;2023-01-19T02:03:50;8.23;;;2.50;;
25657;SDS011;13517;59.320;18.042;2023-01-19T02:06:16;9.55;;;2.72;;
25657;SDS011;13517;59.320;18.042;2023-01-19T02:08:43;7.38;;;2.30;;
25657;SDS011;13517;59.320;18.042;2023-01-19T02:11:33;15.05;;;3.28;;
25657;SDS011;13517;59.320;18.042;2023-01-19T02:14:18;16.25;;;2.90;;
25657;SDS011;13517;59.320;18.042;2023-01-19T02:16:44;9.90;;;2.67;;
25657;SDS011;13517;59.320;18.042;2023-01-19T02:19:11;7.50;;;3.17;;
25657;SDS011;13517;59.320;18.042;2023-01-19T02:24:26;9.52;;;2.63;;
25657;SDS011;13517;59.320;18.042;2023-01-19T02:26:53;12.35;;;2.97;;
25657;SDS011;13517;59.320;18.042;2023-01-19T02:29:20;11.68;;;2.78;;
25657;SDS011;13517;59.320;18.042;2023-01-19T02:31:48;13.48;;;3.13;;
25657;SDS011;13517;59.320;18.042;2023-01-19T02:34:15;5.07;;;2.40;;
25657;SDS011;13517;59.320;18.042;2023-01-19T02:39:10;7.18;;;2.25;;
25657;SDS011;13517;59.320;18.042;2023-01-19T02:41:38;10.18;;;2.75;;
25657;SDS011;13517;59.320;18.042;2023-01-19T02:44:07;8.55;;;2.53;;
25657;SDS011;13517;59.320;18.042;2023-01-19T02:46:35;15.45;;;3.42;;
25657;SDS011;13517;59.320;18.042;2023-01-19T02:49:01;7.93;;;2.85;;
25657;SDS011;13517;59.320;18.042;2023-01-19T02:51:27;8.23;;;2.40;;
25657;SDS011;13517;59.320;18.042;2023-01-19T03:07:13;12.35;;;2.70;;
25657;SDS011;13517;59.320;18.042;2023-01-19T03:09:49;14.43;;;3.28;;
25657;SDS011;13517;59.320;18.042;2023-01-19T03:15:11;7.78;;;3.35;;
25657;SDS011;13517;59.320;18.042;2023-01-19T03:17:43;10.63;;;3.70;;
25657;SDS011;13517;59.320;18.042;2023-01-19T03:20:12;14.82;;;2.55;;
25657;SDS011;13517;59.320;18.042;2023-01-19T03:22:42;7.18;;;2.78;;
25657;SDS011;13517;59.320;18.042;2023-01-19T03:25:09;12.02;;;2.38;;
25657;SDS011;13517;59.320;18.042;2023-01-19T03:27:37;14.25;;;2.92;;
25657;SDS011;13517;59.320;18.042;2023-01-19T03:30:14;8.38;;;2.97;;
25657;SDS011;13517;59.320;18.042;2023-01-19T03:32:49;11.82;;;2.88;;
25657;SDS011;13517;59.320;18.042;2023-01-19T03:35:28;10.48;;;2.47;;
25657;SDS011;13517;59.320;18.042;2023-01-19T03:37:56;10.70;;;3.03;;
25657;SDS011;13517;59.320;18.042;2023-01-19T03:40:25;8.65;;;2.38;;
25657;SDS011;13517;59.320;18.042;2023-01-19T03:42:53;8.00;;;2.70;;
25657;SDS011;13517;59.320;18.042;2023-01-19T03:45:19;8.75;;;2.50;;
25657;SDS011;13517;59.320;18.042;2023-01-19T03:47:46;7.22;;;2.70;;
25657;SDS011;13517;59.320;18.042;2023-01-19T03:50:13;9.65;;;2.60;;
25657;SDS011;13517;59.320;18.042;2023-01-19T03:52:58;7.38;;;2.53;;
25657;SDS011;13517;59.320;18.042;2023-01-19T03:55:36;10.20;;;2.95;;
25657;SDS011;13517;59.320;18.042;2023-01-19T03:58:04;9.88;;;2.58;;
25657;SDS011;13517;59.320;18.042;2023-01-19T04:00:29;6.65;;;3.13;;
25657;SDS011;13517;59.320;18.042;2023-01-19T04:02:55;12.55;;;2.70;;
25657;SDS011;13517;59.320;18.042;2023-01-19T04:05:21;11.07;;;2.58;;
25657;SDS011;13517;59.320;18.042;2023-01-19T04:07:47;9.45;;;3.25;;
25657;SDS011;13517;59.320;18.042;2023-01-19T04:10:14;13.80;;;3.05;;
25657;SDS011;13517;59.320;18.042;2023-01-19T04:12:40;9.07;;;3.05;;
25657;SDS011;13517;59.320;18.042;2023-01-19T04:15:06;14.95;;;3.28;;
25657;SDS011;13517;59.320;18.042;2023-01-19T04:17:32;6.15;;;2.40;;
25657;SDS011;13517;59.320;18.042;2023-01-19T04:19:57;8.65;;;2.38;;
25657;SDS011;13517;59.320;18.042;2023-01-19T04:22:23;12.18;;;3.22;;
25657;SDS011;13517;59.320;18.042;2023-01-19T04:24:49;13.90;;;3.28;;
25657;SDS011;13517;59.320;18.042;2023-01-19T04:27:14;6.40;;;2.08;;
25657;SDS011;13517;59.320;18.042;2023-01-19T04:29:40;8.10;;;2.60;;
25657;SDS011;13517;59.320;18.042;2023-01-19T04:32:06;4.50;;;2.35;;
25657;SDS011;13517;59.320;18.042;2023-01-19T04:34:31;7.90;;;2.55;;
25657;SDS011;13517;59.320;18.042;2023-01-19T04:36:57;9.02;;;2.50;;
25657;SDS011;13517;59.320;18.042;2023-01-19T04:39:22;10.30;;;2.58;;
25657;SDS011;13517;59.320;18.042;2023-01-19T04:41:48;26.60;;;2.67;;
25657;SDS011;13517;59.320;18.042;2023-01-19T04:44:13;9.02;;;2.70;;
25657;SDS011;13517;59.320;18.042;2023-01-19T04:46:38;8.77;;;2.65;;
25657;SDS011;13517;59.320;18.042;2023-01-19T04:49:04;6.30;;;2.20;;
25657;SDS011;13517;59.320;18.042;2023-01-19T04:51:29;8.77;;;3.00;;
25657;SDS011;13517;59.320;18.042;2023-01-19T04:53:55;10.18;;;2.88;;
25657;SDS011;13517;59.320;18.042;2023-01-19T04:56:21;11.65;;;2.92;;
25657;SDS011;13517;59.320;18.042;2023-01-19T04:58:47;10.60;;;2.92;;
25657;SDS011;13517;59.320;18.042;2023-01-19T05:01:12;11.70;;;2.50;;
25657;SDS011;13517;59.320;18.042;2023-01-19T05:03:38;14.02;;;2.75;;
25657;SDS011;13517;59.320;18.042;2023-01-19T05:06:04;8.25;;;2.30;;
25657;SDS011;13517;59.320;18.042;2023-01-19T05:08:30;6.30;;;3.00;;
25657;SDS011;13517;59.320;18.042;2023-01-19T05:10:55;12.48;;;2.78;;
25657;SDS011;13517;59.320;18.042;2023-01-19T05:13:21;10.45;;;3.55;;
25657;SDS011;13517;59.320;18.042;2023-01-19T05:15:47;11.32;;;3.22;;
25657;SDS011;13517;59.320;18.042;2023-01-19T05:18:12;11.07;;;2.60;;
25657;SDS011;13517;59.320;18.042;2023-01-19T05:20:37;12.73;;;2.85;;
25657;SDS011;13517;59.320;18.042;2023-01-19T05:23:04;6.00;;;2.88;;
25657;SDS011;13517;59.320;18.042;2023-01-19T05:25:29;12.10;;;3.03;;
25657;SDS011;13517;59.320;18.042;2023-01-19T05:27:55;9.50;;;2.70;;
25657;SDS011;13517;59.320;18.042;2023-01-19T05:30:20;13.02;;;2.80;;
25657;SDS011;13517;59.320;18.042;2023-01-19T05:32:46;12.65;;;2.92;;
25657;SDS011;13517;59.320;18.042;2023-01-19T05:35:11;8.65;;;2.50;;
25657;SDS011;13517;59.320;18.042;2023-01-19T05:37:37;7.60;;;2.58;;
25657;SDS011;13517;59.320;18.042;2023-01-19T05:40:03;10.70;;;2.95;;
25657;SDS011;13517;59.320;18.042;2023-01-19T05:42:29;14.85;;;3.25;;
25657;SDS011;13517;59.320;18.042;2023-01-19T05:44:55;12.30;;;3.58;;
25657;SDS011;13517;59.320;18.042;2023-01-19T05:47:20;9.10;;;3.38;;
25657;SDS011;13517;59.320;18.042;2023-01-19T05:49:45;14.07;;;3.20;;
25657;SDS011;13517;59.320;18.042;2023-01-19T05:52:11;8.50;;;3.28;;
25657;SDS011;13517;59.320;18.042;2023-01-19T05:54:36;11.20;;;3.72;;
25657;SDS011;13517;59.320;18.042;2023-01-19T05:57:04;17.60;;;3.30;;
25657;SDS011;13517;59.320;18.042;2023-01-19T05:59:30;13.23;;;3.30;;
25657;SDS011;13517;59.320;18.042;2023-01-19T06:01:55;10.07;;;2.85;;
25657;SDS011;13517;59.320;18.042;2023-01-19T06:04:21;7.82;;;3.40;;
25657;SDS011;13517;59.320;18.042;2023-01-19T06:06:47;10.05;;;3.28;;
25657;SDS011;13517;59.320;18.042;2023-01-19T06:09:13;12.02;;;3.38;;
25657;SDS011;13517;59.320;18.042;2023-01-19T06:11:39;11.65;;;4.82;;
25657;SDS011;13517;59.320;18.042;2023-01-19T06:14:04;11.50;;;3.45;;
25657;SDS011;13517;59.320;18.042;2023-01-19T06:16:29;11.18;;;5.57;;
25657;SDS011;13517;59.320;18.042;2023-01-19T06:18:55;11.95;;;3.95;;
25657;SDS011;13517;59.320;18.042;2023-01-19T06:21:20;14.45;;;4.07;;
25657;SDS011;13517;59.320;18.042;2023-01-19T06:23:46;13.57;;;3.75;;
25657;SDS011;13517;59.320;18.042;2023-01-19T06:26:11;13.93;;;4.03;;
25657;SDS011;13517;59.320;18.042;2023-01-19T06:28:37;10.18;;;3.38;;
25657;SDS011;13517;59.320;18.042;2023-01-19T06:31:02;7.57;;;3.60;;
25657;SDS011;13517;59.320;18.042;2023-01-19T06:33:28;10.65;;;3.08;;
25657;SDS011;13517;59.320;18.042;2023-01-19T06:35:53;16.50;;;3.90;;
25657;SDS011;13517;59.320;18.042;2023-01-19T06:38:19;12.55;;;3.78;;
25657;SDS011;13517;59.320;18.042;2023-01-19T06:40:45;13.82;;;4.97;;
25657;SDS011;13517;59.320;18.042;2023-01-19T06:43:17;18.60;;;3.45;;
25657;SDS011;13517;59.320;18.042;2023-01-19T06:45:44;12.68;;;3.60;;
25657;SDS011;13517;59.320;18.042;2023-01-19T06:48:10;13.25;;;3.85;;
25657;SDS011;13517;59.320;18.042;2023-01-19T06:50:35;28.35;;;4.30;;
25657;SDS011;13517;59.320;18.042;2023-01-19T06:53:01;9.90;;;3.33;;
25657;SDS011;13517;59.320;18.042;2023-01-19T06:55:26;20.77;;;4.28;;
25657;SDS011;13517;59.320;18.042;2023-01-19T06:57:58;9.77;;;3.25;;
25657;SDS011;13517;59.320;18.042;2023-01-19T07:00:24;15.35;;;3.92;;
25657;SDS011;13517;59.320;18.042;2023-01-19T07:02:50;6.95;;;3.25;;
25657;SDS011;13517;59.320;18.042;2023-01-19T07:05:16;11.20;;;3.38;;
25657;SDS011;13517;59.320;18.042;2023-01-19T07:07:42;15.23;;;3.65;;
25657;SDS011;13517;59.320;18.042;2023-01-19T07:10:09;12.30;;;3.35;;
25657;SDS011;13517;59.320;18.042;2023-01-19T07:12:36;12.95;;;3.50;;
25657;SDS011;13517;59.320;18.042;2023-01-19T07:15:03;12.18;;;3.58;;
25657;SDS011;13517;59.320;18.042;2023-01-19T07:17:30;9.50;;;3.90;;
25657;SDS011;13517;59.320;18.042;2023-01-19T07:19:55;14.82;;;3.83;;
25657;SDS011;13517;59.320;18.042;2023-01-19T07:22:20;16.65;;;4.03;;
25657;SDS011;13517;59.320;18.042;2023-01-19T07:24:46;15.63;;;4.72;;
25657;SDS011;13517;59.320;18.042;2023-01-19T07:27:11;11.07;;;4.20;;
25657;SDS011;13517;59.320;18.042;2023-01-19T07:29:37;11.40;;;3.67;;
25657;SDS011;13517;59.320;18.042;2023-01-19T07:32:03;9.80;;;5.15;;
25657;SDS011;13517;59.320;18.042;2023-01-19T07:34:28;8.10;;;3.65;;
25657;SDS011;13517;59.320;18.042;2023-01-19T07:36:54;11.55;;;4.50;;
25657;SDS011;13517;59.320;18.042;2023-01-19T07:39:20;13.98;;;4.40;;
25657;SDS011;13517;59.320;18.042;2023-01-19T07:41:46;16.00;;;4.18;;
25657;SDS011;13517;59.320;18.042;2023-01-19T07:44:12;8.93;;;5.60;;
25657;SDS011;13517;59.320;18.042;2023-01-19T07:46:38;11.85;;;4.43;;
25657;SDS011;13517;59.320;18.042;2023-01-19T07:49:03;17.38;;;5.10;;
25657;SDS011;13517;59.320;18.042;2023-01-19T07:51:29;13.40;;;4.95;;
25657;SDS011;13517;59.320;18.042;2023-01-19T07:53:54;15.30;;;4.32;;
25657;SDS011;13517;59.320;18.042;2023-01-19T07:56:20;10.85;;;4.93;;
25657;SDS011;13517;59.320;18.042;2023-01-19T07:58:46;12.75;;;4.70;;
25657;SDS011;13517;59.320;18.042;2023-01-19T08:01:13;21.70;;;5.10;;
25657;SDS011;13517;59.320;18.042;2023-01-19T08:03:39;18.95;;;5.20;;
25657;SDS011;13517;59.320;18.042;2023-01-19T08:06:05;15.20;;;5.20;;
25657;SDS011;13517;59.320;18.042;2023-01-19T08:08:31;14.55;;;4.85;;
25657;SDS011;13517;59.320;18.042;2023-01-19T08:10:57;11.60;;;4.97;;
25657;SDS011;13517;59.320;18.042;2023-01-19T08:13:23;16.10;;;5.00;;
25657;SDS011;13517;59.320;18.042;2023-01-19T08:15:49;16.40;;;5.30;;
25657;SDS011;13517;59.320;18.042;2023-01-19T08:18:15;15.63;;;5.10;;
25657;SDS011;13517;59.320;18.042;2023-01-19T08:20:41;13.63;;;5.03;;
25657;SDS011;13517;59.320;18.042;2023-01-19T08:23:07;13.57;;;5.15;;
25657;SDS011;13517;59.320;18.042;2023-01-19T08:25:36;16.42;;;4.32;;
25657;SDS011;13517;59.320;18.042;2023-01-19T08:28:04;13.95;;;4.97;;
25657;SDS011;13517;59.320;18.042;2023-01-19T08:30:31;11.27;;;4.40;;
25657;SDS011;13517;59.320;18.042;2023-01-19T08:32:57;10.90;;;4.53;;
25657;SDS011;13517;59.320;18.042;2023-01-19T08:35:31;17.02;;;4.47;;
25657;SDS011;13517;59.320;18.042;2023-01-19T08:37:58;13.48;;;4.43;;
25657;SDS011;13517;59.320;18.042;2023-01-19T08:40:29;18.10;;;4.93;;
25657;SDS011;13517;59.320;18.042;2023-01-19T08:42:59;12.02;;;4.50;;
25657;SDS011;13517;59.320;18.042;2023-01-19T08:45:29;14.13;;;4.60;;
25657;SDS011;13517;59.320;18.042;2023-01-19T08:47:57;11.45;;;4.68;;
25657;SDS011;13517;59.320;18.042;2023-01-19T08:50:32;9.77;;;4.63;;
25657;SDS011;13517;59.320;18.042;2023-01-19T08:52:59;11.35;;;4.70;;
25657;SDS011;13517;59.320;18.042;2023-01-19T08:55:26;13.65;;;4.63;;
25657;SDS011;13517;59.320;18.042;2023-01-19T08:57:53;19.00;;;5.10;;
25657;SDS011;13517;59.320;18.042;2023-01-19T09:00:21;17.83;;;5.07;;
25657;SDS011;13517;59.320;18.042;2023-01-19T09:02:49;11.60;;;5.22;;
25657;SDS011;13517;59.320;18.042;2023-01-19T09:05:15;18.98;;;5.72;;
25657;SDS011;13517;59.320;18.042;2023-01-19T09:07:42;18.02;;;5.63;;
25657;SDS011;13517;59.320;18.042;2023-01-19T09:10:09;17.40;;;4.95;;
25657;SDS011;13517;59.320;18.042;2023-01-19T09:12:35;13.77;;;5.28;;
25657;SDS011;13517;59.320;18.042;2023-01-19T09:15:00;16.20;;;5.35;;
25657;SDS011;13517;59.320;18.042;2023-01-19T09:17:26;15.13;;;5.40;;
25657;SDS011;13517;59.320;18.042;2023-01-19T09:19:51;13.35;;;5.63;;
25657;SDS011;13517;59.320;18.042;2023-01-19T09:22:16;14.02;;;4.60;;
25657;SDS011;13517;59.320;18.042;2023-01-19T09:24:42;12.13;;;5.65;;
25657;SDS011;13517;59.320;18.042;2023-01-19T09:27:07;11.35;;;4.90;;
25657;SDS011;13517;59.320;18.042;2023-01-19T09:29:33;11.50;;;4.85;;
25657;SDS011;13517;59.320;18.042;2023-01-19T09:31:58;18.83;;;5.15;;
25657;SDS011;13517;59.320;18.042;2023-01-19T09:34:23;11.27;;;4.50;;
25657;SDS011;13517;59.320;18.042;2023-01-19T09:36:52;15.68;;;4.47;;
25657;SDS011;13517;59.320;18.042;2023-01-19T09:39:17;9.35;;;4.55;;
25657;SDS011;13517;59.320;18.042;2023-01-19T09:41:48;11.95;;;4.35;;
25657;SDS011;13517;59.320;18.042;2023-01-19T09:44:31;9.90;;;4.38;;
25657;SDS011;13517;59.320;18.042;2023-01-19T09:46:59;10.35;;;4.65;;
25657;SDS011;13517;59.320;18.042;2023-01-19T09:49:32;9.73;;;5.15;;
25657;SDS011;13517;59.320;18.042;2023-01-19T09:52:03;10.73;;;4.55;;
25657;SDS011;13517;59.320;18.042;2023-01-19T09:54:30;11.23;;;4.95;;
25657;SDS011;13517;59.320;18.042;2023-01-19T09:57:08;12.18;;;5.07;;
25657;SDS011;13517;59.320;18.042;2023-01-19T09:59:36;11.50;;;5.55;;
25657;SDS011;13517;59.320;18.042;2023-01-19T10:04:39;13.80;;;4.85;;
25657;SDS011;13517;59.320;18.042;2023-01-19T10:07:17;15.50;;;6.15;;
25657;SDS011;13517;59.320;18.042;2023-01-19T10:15:04;13.65;;;4.80;;
25657;SDS011;13517;59.320;18.042;2023-01-19T10:20:27;13.25;;;5.20;;
25657;SDS011;13517;59.320;18.042;2023-01-19T10:22:57;12.43;;;4.90;;
25657;SDS011;13517;59.320;18.042;2023-01-19T10:25:24;9.40;;;4.68;;
25657;SDS011;13517;59.320;18.042;2023-01-19T10:27:50;15.98;;;4.85;;
25657;SDS011;13517;59.320;18.042;2023-01-19T10:30:26;12.40;;;4.93;;
25657;SDS011;13517;59.320;18.042;2023-01-19T10:32:53;11.73;;;4.82;;
25657;SDS011;13517;59.320;18.042;2023-01-19T10:35:20;18.90;;;5.13;;
25657;SDS011;13517;59.320;18.042;2023-01-19T10:37:50;13.75;;;5.55;;
25657;SDS011;13517;59.320;18.042;2023-01-19T10:40:30;10.02;;;4.47;;
25657;SDS011;13517;59.320;18.042;2023-01-19T10:43:00;13.70;;;4.28;;
25657;SDS011;13517;59.320;18.042;2023-01-19T10:45:26;10.00;;;4.57;;
25657;SDS011;13517;59.320;18.042;2023-01-19T10:47:54;13.10;;;4.30;;
25657;SDS011;13517;59.320;18.042;2023-01-19T10:52:54;10.98;;;4.40;;
25657;SDS011;13517;59.320;18.042;2023-01-19T10:55:28;17.92;;;4.60;;
25657;SDS011;13517;59.320;18.042;2023-01-19T10:58:04;9.68;;;3.83;;
25657;SDS011;13517;59.320;18.042;2023-01-19T11:00:32;13.60;;;5.07;;
25657;SDS011;13517;59.320;18.042;2023-01-19T11:03:07;9.85;;;4.15;;
25657;SDS011;13517;59.320;18.042;2023-01-19T11:05:46;9.15;;;5.05;;
25657;SDS011;13517;59.320;18.042;2023-01-19T11:08:27;13.27;;;4.57;;
25657;SDS011;13517;59.320;18.042;2023-01-19T11:11:11;12.50;;;5.00;;
25657;SDS011;13517;59.320;18.042;2023-01-19T11:13:37;12.07;;;4.80;;
25657;SDS011;13517;59.320;18.042;2023-01-19T11:16:05;14.68;;;4.63;;
25657;SDS011;13517;59.320;18.042;2023-01-19T11:18:32;7.78;;;4.32;;
25657;SDS011;13517;59.320;18.042;2023-01-19T11:23:46;13.20;;;4.65;;
25657;SDS011;13517;59.320;18.042;2023-01-19T11:27:00;14.77;;;5.20;;
25657;SDS011;13517;59.320;18.042;2023-01-19T11:29:05;11.32;;;5.50;;
25657;SDS011;13517;59.320;18.042;2023-01-19T11:31:56;12.90;;;4.70;;
25657;SDS011;13517;59.320;18.042;2023-01-19T11:34:35;13.77;;;5.35;;
25657;SDS011;13517;59.320;18.042;2023-01-19T11:37:04;13.25;;;5.55;;
25657;SDS011;13517;59.320;18.042;2023-01-19T11:39:51;13.23;;;4.82;;
25657;SDS011;13517;59.320;18.042;2023-01-19T11:42:19;11.85;;;5.00;;
25657;SDS011;13517;59.320;18.042;2023-01-19T11:47:47;10.75;;;4.25;;
25657;SDS011;13517;59.320;18.042;2023-01-19T11:55:36;10.65;;;4.85;;
25657;SDS011;13517;59.320;18.042;2023-01-19T11:58:08;10.27;;;4.68;;
25657;SDS011;13517;59.320;18.042;2023-01-19T12:03:12;9.73;;;4.70;;
25657;SDS011;13517;59.320;18.042;2023-01-19T12:05:39;13.23;;;5.22;;
25657;SDS011;13517;59.320;18.042;2023-01-19T12:08:11;10.85;;;5.75;;
25657;SDS011;13517;59.320;18.042;2023-01-19T12:10:42;16.80;;;4.90;;
25657;SDS011;13517;59.320;18.042;2023-01-19T12:13:20;18.70;;;4.85;;
25657;SDS011;13517;59.320;18.042;2023-01-19T12:15:49;13.55;;;4.22;;
25657;SDS011;13517;59.320;18.042;2023-01-19T12:18:27;10.70;;;4.63;;
25657;SDS011;13517;59.320;18.042;2023-01-19T12:20:56;13.40;;;4.72;;
25657;SDS011;13517;59.320;18.042;2023-01-19T12:23:43;14.32;;;5.32;;
25657;SDS011;13517;59.320;18.042;2023-01-19T12:28:41;12.95;;;5.25;;
25657;SDS011;13517;59.320;18.042;2023-01-19T12:31:09;18.63;;;4.97;;
25657;SDS011;13517;59.320;18.042;2023-01-19T12:33:41;15.52;;;5.10;;
25657;SDS011;13517;59.320;18.042;2023-01-19T12:38:54;10.73;;;4.47;;
25657;SDS011;13517;59.320;18.042;2023-01-19T12:49:34;15.25;;;5.55;;
25657;SDS011;13517;59.320;18.042;2023-01-19T12:54:39;12.65;;;6.82;;
25657;SDS011;13517;59.320;18.042;2023-01-19T12:57:07;16.70;;;6.88;;
25657;SDS011;13517;59.320;18.042;2023-01-19T12:59:42;21.55;;;8.40;;
25657;SDS011;13517;59.320;18.042;2023-01-19T13:24:13;11.82;;;6.07;;
25657;SDS011;13517;59.320;18.042;2023-01-19T13:29:34;13.38;;;5.50;;
25657;SDS011;13517;59.320;18.042;2023-01-19T13:32:02;11.85;;;5.30;;
25657;SDS011;13517;59.320;18.042;2023-01-19T13:34:41;18.15;;;5.47;;
25657;SDS011;13517;59.320;18.042;2023-01-19T13:37:42;13.88;;;5.78;;
25657;SDS011;13517;59.320;18.042;2023-01-19T13:40:05;13.18;;;5.63;;
25657;SDS011;13517;59.320;18.042;2023-01-19T13:42:33;13.20;;;4.90;;
25657;SDS011;13517;59.320;18.042;2023-01-19T13:47:50;13.98;;;6.32;;
25657;SDS011;13517;59.320;18.042;2023-01-19T13:50:31;14.02;;;5.50;;
25657;SDS011;13517;59.320;18.042;2023-01-19T13:52:59;11.02;;;5.05;;
25657;SDS011;13517;59.320;18.042;2023-01-19T13:55:29;12.73;;;5.05;;
25657;SDS011;13517;59.320;18.042;2023-01-19T13:57:55;13.82;;;5.75;;
25657;SDS011;13517;59.320;18.042;2023-01-19T14:02:53;18.05;;;5.95;;
25657;SDS011;13517;59.320;18.042;2023-01-19T14:10:29;11.38;;;5.15;;
25657;SDS011;13517;59.320;18.042;2023-01-19T14:12:58;14.70;;;5.32;;
25657;SDS011;13517;59.320;18.042;2023-01-19T14:15:25;17.13;;;6.45;;
25657;SDS011;13517;59.320;18.042;2023-01-19T14:18:08;15.68;;;5.50;;
25657;SDS011;13517;59.320;18.042;2023-01-19T14:37:04;16.48;;;6.78;;
25657;SDS011;13517;59.320;18.042;2023-01-19T14:39:42;12.02;;;6.55;;
25657;SDS011;13517;59.320;18.042;2023-01-19T14:42:10;17.88;;;6.40;;
25657;SDS011;13517;59.320;18.042;2023-01-19T14:44:43;13.10;;;6.20;;
25657;SDS011;13517;59.320;18.042;2023-01-19T14:47:32;19.38;;;7.18;;
25657;SDS011;13517;59.320;18.042;2023-01-19T14:50:00;12.00;;;6.30;;
25657;SDS011;13517;59.320;18.042;2023-01-19T14:53:20;14.02;;;5.82;;
25657;SDS011;13517;59.320;18.042;2023-01-19T14:55:56;18.23;;;6.70;;
25657;SDS011;13517;59.320;18.042;2023-01-19T14:58:29;18.83;;;5.97;;
25657;SDS011;13517;59.320;18.042;2023-01-19T15:00:57;14.63;;;5.75;;
25657;SDS011;13517;59.320;18.042;2023-01-19T15:03:23;13.63;;;6.57;;
25657;SDS011;13517;59.320;18.042;2023-01-19T15:05:49;14.70;;;6.20;;
25657;SDS011;13517;59.320;18.042;2023-01-19T15:08:22;19.25;;;6.82;;
25657;SDS011;13517;59.320;18.042;2023-01-19T15:10:52;19.08;;;6.38;;
25657;SDS011;13517;59.320;18.042;2023-01-19T15:13:19;12.73;;;6.63;;
25657;SDS011;13517;59.320;18.042;2023-01-19T15:15:46;20.75;;;6.90;;
25657;SDS011;13517;59.320;18.042;2023-01-19T15:18:14;30.63;;;7.20;;
25657;SDS011;13517;59.320;18.042;2023-01-19T15:20:43;20.30;;;6.22;;
25657;SDS011;13517;59.320;18.042;2023-01-19T15:23:09;21.17;;;7.10;;
25657;SDS011;13517;59.320;18.042;2023-01-19T15:25:35;17.67;;;6.88;;
25657;SDS011;13517;59.320;18.042;2023-01-19T15:28:04;16.10;;;7.47;;
25657;SDS011;13517;59.320;18.042;2023-01-19T15:30:37;29.42;;;8.07;;
25657;SDS011;13517;59.320;18.042;2023-01-19T15:33:03;24.38;;;12.90;;
25657;SDS011;13517;59.320;18.042;2023-01-19T15:35:29;21.10;;;12.35;;
25657;SDS011;13517;59.320;18.042;2023-01-19T15:37:54;25.10;;;9.07;;
25657;SDS011;13517;59.320;18.042;2023-01-19T15:40:20;16.48;;;8.10;;
25657;SDS011;13517;59.320;18.042;2023-01-19T15:42:47;20.42;;;8.50;;
25657;SDS011;13517;59.320;18.042;2023-01-19T15:48:20;15.38;;;7.32;;
25657;SDS011;13517;59.320;18.042;2023-01-19T15:50:46;16.27;;;7.30;;
25657;SDS011;13517;59.320;18.042;2023-01-19T15:53:15;26.67;;;9.05;;
25657;SDS011;13517;59.320;18.042;2023-01-19T15:55:43;13.73;;;7.45;;
25657;SDS011;13517;59.320;18.042;2023-01-19T15:58:12;20.75;;;7.88;;
25657;SDS011;13517;59.320;18.042;2023-01-19T16:00:38;20.38;;;10.27;;
25657;SDS011;13517;59.320;18.042;2023-01-19T16:03:03;16.77;;;7.78;;
25657;SDS011;13517;59.320;18.042;2023-01-19T16:05:29;17.55;;;7.90;;
25657;SDS011;13517;59.320;18.042;2023-01-19T16:07:55;14.25;;;7.28;;
25657;SDS011;13517;59.320;18.042;2023-01-19T16:10:21;22.38;;;7.82;;
25657;SDS011;13517;59.320;18.042;2023-01-19T16:12:47;17.90;;;7.43;;
25657;SDS011;13517;59.320;18.042;2023-01-19T16:15:16;21.73;;;8.35;;
25657;SDS011;13517;59.320;18.042;2023-01-19T16:17:42;15.82;;;6.75;;
25657;SDS011;13517;59.320;18.042;2023-01-19T16:20:08;19.35;;;9.25;;
25657;SDS011;13517;59.320;18.042;2023-01-19T16:22:34;19.80;;;9.07;;
25657;SDS011;13517;59.320;18.042;2023-01-19T16:25:00;22.08;;;8.90;;
25657;SDS011;13517;59.320;18.042;2023-01-19T16:27:26;21.20;;;7.72;;
25657;SDS011;13517;59.320;18.042;2023-01-19T16:29:52;18.60;;;8.20;;